sensor_id;sensor_type;location;lat;lon;timestamp;P1;durP1;ratioP1;P2;durP2;ratioP2
15669;SDS011;18524;45.190;5.732;2023-10-31T00:01:02;1.00;;;0.87;;
15669;SDS011;18524;45.190;5.732;2023-10-31T00:05:53;1.53;;;0.93;;
15669;SDS011;18524;45.190;5.732;2023-10-31T00:10:43;2.53;;;0.90;;
15669;SDS011;18524;45.190;5.732;2023-10-31T00:15:34;0.80;;;0.80;;
15669;SDS011;18524;45.190;5.732;2023-10-31T00:20:25;2.13;;;0.87;;
15669;SDS011;18524;45.190;5.732;2023-10-31T00:25:15;1.67;;;1.20;;
15669;SDS011;18524;45.190;5.732;2023-10-31T00:30:05;1.73;;;1.50;;
15669;SDS011;18524;45.190;5.732;2023-10-31T00:34:56;1.73;;;1.30;;
15669;SDS011;18524;45.190;5.732;2023-10-31T00:39:46;2.10;;;1.90;;
15669;SDS011;18524;45.190;5.732;2023-10-31T00:44:37;1.93;;;1.10;;
15669;SDS011;18524;45.190;5.732;2023-10-31T00:49:27;1.93;;;1.20;;
15669;SDS011;18524;45.190;5.732;2023-10-31T00:54:17;1.40;;;1.17;;
15669;SDS011;18524;45.190;5.732;2023-10-31T00:59:08;2.13;;;1.40;;
15669;SDS011;18524;45.190;5.732;2023-10-31T01:03:58;1.60;;;1.47;;
15669;SDS011;18524;45.190;5.732;2023-10-31T01:08:48;1.60;;;1.50;;
15669;SDS011;18524;45.190;5.732;2023-10-31T01:13:39;1.53;;;1.43;;
15669;SDS011;18524;45.190;5.732;2023-10-31T01:18:29;1.83;;;1.40;;
15669;SDS011;18524;45.190;5.732;2023-10-31T01:23:19;2.83;;;1.60;;
15669;SDS011;18524;45.190;5.732;2023-10-31T01:28:10;2.03;;;1.30;;
15669;SDS011;18524;45.190;5.732;2023-10-31T01:33:00;2.60;;;1.30;;
15669;SDS011;18524;45.190;5.732;2023-10-31T01:37:50;1.47;;;1.37;;
15669;SDS011;18524;45.190;5.732;2023-10-31T01:42:41;1.37;;;1.10;;
15669;SDS011;18524;45.190;5.732;2023-10-31T01:47:31;1.63;;;1.00;;
15669;SDS011;18524;45.190;5.732;2023-10-31T01:52:22;1.60;;;0.73;;
15669;SDS011;18524;45.190;5.732;2023-10-31T01:57:12;1.17;;;1.07;;
15669;SDS011;18524;45.190;5.732;2023-10-31T02:02:04;1.47;;;0.90;;
15669;SDS011;18524;45.190;5.732;2023-10-31T02:06:55;1.33;;;0.90;;
15669;SDS011;18524;45.190;5.732;2023-10-31T02:11:46;1.77;;;1.10;;
15669;SDS011;18524;45.190;5.732;2023-10-31T02:16:36;2.43;;;1.27;;
15669;SDS011;18524;45.190;5.732;2023-10-31T02:21:26;1.90;;;1.40;;
15669;SDS011;18524;45.190;5.732;2023-10-31T02:26:18;1.40;;;1.20;;
15669;SDS011;18524;45.190;5.732;2023-10-31T02:31:08;2.27;;;1.30;;
15669;SDS011;18524;45.190;5.732;2023-10-31T02:35:59;1.53;;;1.43;;
15669;SDS011;18524;45.190;5.732;2023-10-31T02:40:49;1.50;;;1.40;;
15669;SDS011;18524;45.190;5.732;2023-10-31T02:45:39;1.83;;;1.27;;
15669;SDS011;18524;45.190;5.732;2023-10-31T02:50:30;1.73;;;1.60;;
15669;SDS011;18524;45.190;5.732;2023-10-31T02:55:20;1.80;;;1.23;;
15669;SDS011;18524;45.190;5.732;2023-10-31T03:00:11;1.07;;;0.90;;
15669;SDS011;18524;45.190;5.732;2023-10-31T03:05:01;2.13;;;1.23;;
15669;SDS011;18524;45.190;5.732;2023-10-31T03:09:52;2.30;;;1.07;;
15669;SDS011;18524;45.190;5.732;2023-10-31T03:14:44;2.03;;;0.90;;
15669;SDS011;18524;45.190;5.732;2023-10-31T03:19:34;1.60;;;1.07;;
15669;SDS011;18524;45.190;5.732;2023-10-31T03:24:24;1.30;;;0.80;;
15669;SDS011;18524;45.190;5.732;2023-10-31T03:29:15;1.47;;;1.00;;
15669;SDS011;18524;45.190;5.732;2023-10-31T03:34:05;2.90;;;1.30;;
15669;SDS011;18524;45.190;5.732;2023-10-31T03:38:55;1.10;;;0.93;;
15669;SDS011;18524;45.190;5.732;2023-10-31T03:43:46;1.30;;;1.10;;
15669;SDS011;18524;45.190;5.732;2023-10-31T03:48:37;1.30;;;1.07;;
15669;SDS011;18524;45.190;5.732;2023-10-31T03:53:27;1.90;;;0.90;;
15669;SDS011;18524;45.190;5.732;2023-10-31T03:58:17;0.90;;;0.90;;
15669;SDS011;18524;45.190;5.732;2023-10-31T04:03:08;1.00;;;0.80;;
15669;SDS011;18524;45.190;5.732;2023-10-31T04:07:58;1.10;;;0.87;;
15669;SDS011;18524;45.190;5.732;2023-10-31T04:12:49;1.33;;;0.87;;
15669;SDS011;18524;45.190;5.732;2023-10-31T04:17:39;0.97;;;0.70;;
15669;SDS011;18524;45.190;5.732;2023-10-31T04:22:30;1.20;;;0.80;;
15669;SDS011;18524;45.190;5.732;2023-10-31T04:27:20;0.90;;;0.80;;
15669;SDS011;18524;45.190;5.732;2023-10-31T04:32:11;1.63;;;0.73;;
15669;SDS011;18524;45.190;5.732;2023-10-31T04:37:01;2.30;;;0.70;;
15669;SDS011;18524;45.190;5.732;2023-10-31T04:41:52;0.83;;;0.77;;
15669;SDS011;18524;45.190;5.732;2023-10-31T04:46:42;0.90;;;0.77;;
15669;SDS011;18524;45.190;5.732;2023-10-31T04:51:36;1.70;;;0.90;;
15669;SDS011;18524;45.190;5.732;2023-10-31T04:56:27;1.33;;;0.80;;
15669;SDS011;18524;45.190;5.732;2023-10-31T05:01:18;1.10;;;0.90;;
15669;SDS011;18524;45.190;5.732;2023-10-31T05:06:09;1.10;;;1.00;;
15669;SDS011;18524;45.190;5.732;2023-10-31T05:10:59;1.10;;;0.90;;
15669;SDS011;18524;45.190;5.732;2023-10-31T05:15:50;3.93;;;1.33;;
15669;SDS011;18524;45.190;5.732;2023-10-31T05:20:40;1.07;;;0.90;;
15669;SDS011;18524;45.190;5.732;2023-10-31T05:25:30;1.77;;;1.07;;
15669;SDS011;18524;45.190;5.732;2023-10-31T05:30:21;3.03;;;0.87;;
15669;SDS011;18524;45.190;5.732;2023-10-31T05:35:11;2.07;;;1.10;;
15669;SDS011;18524;45.190;5.732;2023-10-31T05:40:02;1.27;;;1.17;;
15669;SDS011;18524;45.190;5.732;2023-10-31T05:44:53;1.20;;;1.00;;
15669;SDS011;18524;45.190;5.732;2023-10-31T05:49:44;2.13;;;1.00;;
15669;SDS011;18524;45.190;5.732;2023-10-31T05:54:34;2.50;;;1.00;;
15669;SDS011;18524;45.190;5.732;2023-10-31T05:59:25;2.00;;;0.90;;
15669;SDS011;18524;45.190;5.732;2023-10-31T06:04:15;1.97;;;1.30;;
15669;SDS011;18524;45.190;5.732;2023-10-31T06:09:06;2.60;;;1.50;;
15669;SDS011;18524;45.190;5.732;2023-10-31T06:13:56;2.40;;;1.40;;
15669;SDS011;18524;45.190;5.732;2023-10-31T06:18:46;3.00;;;1.53;;
15669;SDS011;18524;45.190;5.732;2023-10-31T06:23:37;1.73;;;1.50;;
15669;SDS011;18524;45.190;5.732;2023-10-31T06:28:28;1.97;;;1.50;;
15669;SDS011;18524;45.190;5.732;2023-10-31T06:33:18;2.93;;;1.80;;
15669;SDS011;18524;45.190;5.732;2023-10-31T06:38:08;1.50;;;1.40;;
15669;SDS011;18524;45.190;5.732;2023-10-31T06:42:59;1.57;;;1.27;;
15669;SDS011;18524;45.190;5.732;2023-10-31T06:47:49;2.40;;;1.17;;
15669;SDS011;18524;45.190;5.732;2023-10-31T06:52:39;1.77;;;1.30;;
15669;SDS011;18524;45.190;5.732;2023-10-31T06:57:30;1.53;;;1.30;;
15669;SDS011;18524;45.190;5.732;2023-10-31T07:02:20;1.50;;;1.10;;
15669;SDS011;18524;45.190;5.732;2023-10-31T07:07:11;1.37;;;1.10;;
15669;SDS011;18524;45.190;5.732;2023-10-31T07:12:01;2.00;;;1.67;;
15669;SDS011;18524;45.190;5.732;2023-10-31T07:16:52;2.07;;;0.80;;
15669;SDS011;18524;45.190;5.732;2023-10-31T07:21:42;1.40;;;1.13;;
15669;SDS011;18524;45.190;5.732;2023-10-31T07:26:32;1.80;;;1.13;;
15669;SDS011;18524;45.190;5.732;2023-10-31T07:31:23;1.87;;;0.80;;
15669;SDS011;18524;45.190;5.732;2023-10-31T07:36:13;2.37;;;0.90;;
15669;SDS011;18524;45.190;5.732;2023-10-31T07:41:04;2.27;;;1.00;;
15669;SDS011;18524;45.190;5.732;2023-10-31T07:45:55;1.87;;;0.90;;
15669;SDS011;18524;45.190;5.732;2023-10-31T07:50:45;1.47;;;1.33;;
15669;SDS011;18524;45.190;5.732;2023-10-31T07:55:36;4.73;;;1.30;;
15669;SDS011;18524;45.190;5.732;2023-10-31T08:00:26;2.90;;;1.47;;
15669;SDS011;18524;45.190;5.732;2023-10-31T08:05:16;2.47;;;1.50;;
15669;SDS011;18524;45.190;5.732;2023-10-31T08:10:07;2.57;;;1.23;;
15669;SDS011;18524;45.190;5.732;2023-10-31T08:14:58;2.23;;;1.10;;
15669;SDS011;18524;45.190;5.732;2023-10-31T08:19:51;1.50;;;1.10;;
15669;SDS011;18524;45.190;5.732;2023-10-31T08:24:41;1.60;;;0.93;;
15669;SDS011;18524;45.190;5.732;2023-10-31T08:29:32;1.70;;;0.90;;
15669;SDS011;18524;45.190;5.732;2023-10-31T08:34:22;1.50;;;1.10;;
15669;SDS011;18524;45.190;5.732;2023-10-31T08:39:13;2.93;;;0.90;;
15669;SDS011;18524;45.190;5.732;2023-10-31T08:44:03;1.13;;;0.73;;
15669;SDS011;18524;45.190;5.732;2023-10-31T08:48:53;1.77;;;1.00;;
15669;SDS011;18524;45.190;5.732;2023-10-31T08:53:44;2.13;;;1.20;;
15669;SDS011;18524;45.190;5.732;2023-10-31T08:58:34;2.23;;;1.43;;
15669;SDS011;18524;45.190;5.732;2023-10-31T09:03:24;2.17;;;1.40;;
15669;SDS011;18524;45.190;5.732;2023-10-31T09:08:15;2.40;;;1.40;;
15669;SDS011;18524;45.190;5.732;2023-10-31T09:13:05;2.83;;;1.20;;
15669;SDS011;18524;45.190;5.732;2023-10-31T09:17:55;2.63;;;1.63;;
15669;SDS011;18524;45.190;5.732;2023-10-31T09:22:46;2.70;;;1.50;;
15669;SDS011;18524;45.190;5.732;2023-10-31T09:27:37;16.43;;;11.70;;
15669;SDS011;18524;45.190;5.732;2023-10-31T09:32:30;4.00;;;2.43;;
15669;SDS011;18524;45.190;5.732;2023-10-31T09:37:20;4.13;;;2.40;;
15669;SDS011;18524;45.190;5.732;2023-10-31T09:42:10;1.63;;;1.50;;
15669;SDS011;18524;45.190;5.732;2023-10-31T09:47:01;20.60;;;14.43;;
15669;SDS011;18524;45.190;5.732;2023-10-31T09:51:51;5.07;;;3.20;;
15669;SDS011;18524;45.190;5.732;2023-10-31T09:56:42;5.23;;;3.70;;
15669;SDS011;18524;45.190;5.732;2023-10-31T10:01:33;3.63;;;2.67;;
15669;SDS011;18524;45.190;5.732;2023-10-31T10:06:23;3.67;;;2.73;;
15669;SDS011;18524;45.190;5.732;2023-10-31T10:11:14;6.10;;;4.10;;
15669;SDS011;18524;45.190;5.732;2023-10-31T10:16:05;5.93;;;2.63;;
15669;SDS011;18524;45.190;5.732;2023-10-31T10:20:57;2.57;;;1.87;;
15669;SDS011;18524;45.190;5.732;2023-10-31T10:25:49;3.30;;;2.00;;
15669;SDS011;18524;45.190;5.732;2023-10-31T10:30:40;3.50;;;1.83;;
15669;SDS011;18524;45.190;5.732;2023-10-31T10:35:31;3.33;;;2.57;;
15669;SDS011;18524;45.190;5.732;2023-10-31T10:40:21;3.57;;;2.30;;
15669;SDS011;18524;45.190;5.732;2023-10-31T10:45:13;3.50;;;2.67;;
15669;SDS011;18524;45.190;5.732;2023-10-31T10:50:06;2.83;;;2.30;;
15669;SDS011;18524;45.190;5.732;2023-10-31T10:55:04;2.63;;;2.10;;
15669;SDS011;18524;45.190;5.732;2023-10-31T11:00:02;4.30;;;2.30;;
15669;SDS011;18524;45.190;5.732;2023-10-31T11:04:54;4.07;;;2.20;;
15669;SDS011;18524;45.190;5.732;2023-10-31T11:09:46;2.73;;;2.43;;
15669;SDS011;18524;45.190;5.732;2023-10-31T11:14:37;2.53;;;2.10;;
15669;SDS011;18524;45.190;5.732;2023-10-31T11:19:28;4.67;;;3.60;;
15669;SDS011;18524;45.190;5.732;2023-10-31T11:24:20;3.80;;;2.83;;
15669;SDS011;18524;45.190;5.732;2023-10-31T11:29:13;3.17;;;2.00;;
15669;SDS011;18524;45.190;5.732;2023-10-31T11:34:03;4.10;;;1.93;;
15669;SDS011;18524;45.190;5.732;2023-10-31T11:39:09;3.53;;;1.97;;
15669;SDS011;18524;45.190;5.732;2023-10-31T11:44:03;3.13;;;2.50;;
15669;SDS011;18524;45.190;5.732;2023-10-31T11:48:54;4.33;;;2.70;;
15669;SDS011;18524;45.190;5.732;2023-10-31T11:53:50;7.13;;;4.37;;
15669;SDS011;18524;45.190;5.732;2023-10-31T11:58:40;5.03;;;3.00;;
15669;SDS011;18524;45.190;5.732;2023-10-31T12:08:32;4.27;;;2.63;;
15669;SDS011;18524;45.190;5.732;2023-10-31T12:13:24;3.20;;;2.30;;
15669;SDS011;18524;45.190;5.732;2023-10-31T12:18:14;4.73;;;2.60;;
15669;SDS011;18524;45.190;5.732;2023-10-31T12:23:08;3.40;;;1.77;;
15669;SDS011;18524;45.190;5.732;2023-10-31T12:27:58;3.13;;;1.73;;
15669;SDS011;18524;45.190;5.732;2023-10-31T12:32:54;2.63;;;1.97;;
15669;SDS011;18524;45.190;5.732;2023-10-31T12:37:47;2.53;;;1.20;;
15669;SDS011;18524;45.190;5.732;2023-10-31T12:42:39;1.77;;;1.00;;
15669;SDS011;18524;45.190;5.732;2023-10-31T12:47:30;2.33;;;1.20;;
15669;SDS011;18524;45.190;5.732;2023-10-31T12:52:20;2.63;;;1.83;;
15669;SDS011;18524;45.190;5.732;2023-10-31T12:57:11;1.90;;;1.47;;
15669;SDS011;18524;45.190;5.732;2023-10-31T13:02:01;1.83;;;1.20;;
15669;SDS011;18524;45.190;5.732;2023-10-31T13:07:03;1.90;;;1.20;;
15669;SDS011;18524;45.190;5.732;2023-10-31T13:11:56;1.60;;;1.23;;
15669;SDS011;18524;45.190;5.732;2023-10-31T13:16:48;1.63;;;1.23;;
15669;SDS011;18524;45.190;5.732;2023-10-31T13:21:38;1.27;;;1.00;;
15669;SDS011;18524;45.190;5.732;2023-10-31T13:26:29;1.17;;;0.90;;
15669;SDS011;18524;45.190;5.732;2023-10-31T13:31:20;1.13;;;0.97;;
15669;SDS011;18524;45.190;5.732;2023-10-31T13:36:10;1.33;;;1.00;;
15669;SDS011;18524;45.190;5.732;2023-10-31T13:41:01;1.77;;;0.97;;
15669;SDS011;18524;45.190;5.732;2023-10-31T13:45:51;2.23;;;1.50;;
15669;SDS011;18524;45.190;5.732;2023-10-31T13:50:41;2.10;;;0.77;;
15669;SDS011;18524;45.190;5.732;2023-10-31T13:55:32;1.87;;;0.70;;
15669;SDS011;18524;45.190;5.732;2023-10-31T14:00:22;1.10;;;0.70;;
15669;SDS011;18524;45.190;5.732;2023-10-31T14:05:13;2.70;;;0.90;;
15669;SDS011;18524;45.190;5.732;2023-10-31T14:10:03;1.27;;;0.80;;
15669;SDS011;18524;45.190;5.732;2023-10-31T14:14:54;1.33;;;0.90;;
15669;SDS011;18524;45.190;5.732;2023-10-31T14:19:44;1.37;;;1.00;;
15669;SDS011;18524;45.190;5.732;2023-10-31T14:24:35;1.97;;;1.60;;
15669;SDS011;18524;45.190;5.732;2023-10-31T14:29:25;1.67;;;1.33;;
15669;SDS011;18524;45.190;5.732;2023-10-31T14:34:16;3.40;;;1.40;;
15669;SDS011;18524;45.190;5.732;2023-10-31T14:39:06;2.33;;;1.50;;
15669;SDS011;18524;45.190;5.732;2023-10-31T14:43:58;2.00;;;1.40;;
15669;SDS011;18524;45.190;5.732;2023-10-31T14:48:48;1.53;;;1.10;;
15669;SDS011;18524;45.190;5.732;2023-10-31T14:53:39;1.70;;;1.03;;
15669;SDS011;18524;45.190;5.732;2023-10-31T14:58:30;1.90;;;1.30;;
15669;SDS011;18524;45.190;5.732;2023-10-31T15:03:20;1.93;;;1.00;;
15669;SDS011;18524;45.190;5.732;2023-10-31T15:08:11;2.50;;;1.10;;
15669;SDS011;18524;45.190;5.732;2023-10-31T15:13:02;2.50;;;1.23;;
15669;SDS011;18524;45.190;5.732;2023-10-31T15:17:53;3.07;;;1.07;;
15669;SDS011;18524;45.190;5.732;2023-10-31T15:22:43;1.77;;;1.20;;
15669;SDS011;18524;45.190;5.732;2023-10-31T15:27:33;4.03;;;1.40;;
15669;SDS011;18524;45.190;5.732;2023-10-31T15:32:24;2.90;;;1.00;;
15669;SDS011;18524;45.190;5.732;2023-10-31T15:37:14;2.30;;;1.40;;
15669;SDS011;18524;45.190;5.732;2023-10-31T15:42:05;2.40;;;1.70;;
15669;SDS011;18524;45.190;5.732;2023-10-31T15:46:56;3.00;;;2.00;;
15669;SDS011;18524;45.190;5.732;2023-10-31T15:51:46;3.33;;;2.30;;
15669;SDS011;18524;45.190;5.732;2023-10-31T15:56:36;3.30;;;2.00;;
15669;SDS011;18524;45.190;5.732;2023-10-31T16:01:27;3.87;;;2.30;;
15669;SDS011;18524;45.190;5.732;2023-10-31T16:06:17;2.83;;;2.40;;
15669;SDS011;18524;45.190;5.732;2023-10-31T16:11:08;4.83;;;2.67;;
15669;SDS011;18524;45.190;5.732;2023-10-31T16:15:59;3.87;;;2.83;;
15669;SDS011;18524;45.190;5.732;2023-10-31T16:20:50;3.87;;;2.87;;
15669;SDS011;18524;45.190;5.732;2023-10-31T16:25:40;4.20;;;3.27;;
15669;SDS011;18524;45.190;5.732;2023-10-31T16:30:31;5.23;;;3.33;;
15669;SDS011;18524;45.190;5.732;2023-10-31T16:35:21;4.67;;;3.67;;
15669;SDS011;18524;45.190;5.732;2023-10-31T16:40:12;5.20;;;4.10;;
15669;SDS011;18524;45.190;5.732;2023-10-31T16:45:02;5.47;;;3.57;;
15669;SDS011;18524;45.190;5.732;2023-10-31T16:49:55;3.90;;;3.43;;
15669;SDS011;18524;45.190;5.732;2023-10-31T16:54:46;5.60;;;3.40;;
15669;SDS011;18524;45.190;5.732;2023-10-31T16:59:36;5.13;;;3.90;;
15669;SDS011;18524;45.190;5.732;2023-10-31T17:04:27;5.67;;;4.20;;
15669;SDS011;18524;45.190;5.732;2023-10-31T17:09:17;7.47;;;4.77;;
15669;SDS011;18524;45.190;5.732;2023-10-31T17:14:07;6.07;;;4.03;;
15669;SDS011;18524;45.190;5.732;2023-10-31T17:18:58;6.60;;;4.43;;
15669;SDS011;18524;45.190;5.732;2023-10-31T17:23:49;6.13;;;4.00;;
15669;SDS011;18524;45.190;5.732;2023-10-31T17:28:40;5.87;;;4.50;;
15669;SDS011;18524;45.190;5.732;2023-10-31T17:33:30;5.70;;;4.50;;
15669;SDS011;18524;45.190;5.732;2023-10-31T17:38:21;7.03;;;5.00;;
15669;SDS011;18524;45.190;5.732;2023-10-31T17:43:12;7.70;;;4.70;;
15669;SDS011;18524;45.190;5.732;2023-10-31T17:48:02;4.50;;;4.00;;
15669;SDS011;18524;45.190;5.732;2023-10-31T17:52:53;4.93;;;3.67;;
15669;SDS011;18524;45.190;5.732;2023-10-31T17:57:43;5.20;;;4.70;;
15669;SDS011;18524;45.190;5.732;2023-10-31T18:02:34;5.70;;;5.10;;
15669;SDS011;18524;45.190;5.732;2023-10-31T18:07:24;6.37;;;5.70;;
15669;SDS011;18524;45.190;5.732;2023-10-31T18:12:15;7.93;;;5.27;;
15669;SDS011;18524;45.190;5.732;2023-10-31T18:17:07;6.53;;;5.00;;
15669;SDS011;18524;45.190;5.732;2023-10-31T18:21:57;5.73;;;5.00;;
15669;SDS011;18524;45.190;5.732;2023-10-31T18:26:49;6.13;;;5.53;;
15669;SDS011;18524;45.190;5.732;2023-10-31T18:31:41;8.73;;;7.47;;
15669;SDS011;18524;45.190;5.732;2023-10-31T18:36:31;12.13;;;8.37;;
15669;SDS011;18524;45.190;5.732;2023-10-31T18:41:22;5.90;;;5.30;;
15669;SDS011;18524;45.190;5.732;2023-10-31T18:46:12;6.17;;;4.50;;
15669;SDS011;18524;45.190;5.732;2023-10-31T18:51:05;4.30;;;3.90;;
15669;SDS011;18524;45.190;5.732;2023-10-31T18:55:58;5.27;;;4.10;;
15669;SDS011;18524;45.190;5.732;2023-10-31T19:00:48;5.17;;;4.67;;
15669;SDS011;18524;45.190;5.732;2023-10-31T19:05:39;4.30;;;3.90;;
15669;SDS011;18524;45.190;5.732;2023-10-31T19:10:29;6.07;;;4.30;;
15669;SDS011;18524;45.190;5.732;2023-10-31T19:15:20;11.47;;;6.73;;
15669;SDS011;18524;45.190;5.732;2023-10-31T19:20:11;11.87;;;6.17;;
15669;SDS011;18524;45.190;5.732;2023-10-31T19:25:01;7.93;;;5.73;;
15669;SDS011;18524;45.190;5.732;2023-10-31T19:29:53;6.93;;;5.37;;
15669;SDS011;18524;45.190;5.732;2023-10-31T19:34:43;6.57;;;4.90;;
15669;SDS011;18524;45.190;5.732;2023-10-31T19:39:34;12.27;;;8.27;;
15669;SDS011;18524;45.190;5.732;2023-10-31T19:44:24;11.17;;;8.67;;
15669;SDS011;18524;45.190;5.732;2023-10-31T19:49:15;6.43;;;5.70;;
15669;SDS011;18524;45.190;5.732;2023-10-31T19:54:05;9.07;;;5.67;;
15669;SDS011;18524;45.190;5.732;2023-10-31T19:58:56;6.63;;;5.53;;
15669;SDS011;18524;45.190;5.732;2023-10-31T20:03:47;8.63;;;6.43;;
15669;SDS011;18524;45.190;5.732;2023-10-31T20:08:38;7.53;;;5.93;;
15669;SDS011;18524;45.190;5.732;2023-10-31T20:13:29;13.10;;;8.70;;
15669;SDS011;18524;45.190;5.732;2023-10-31T20:18:19;7.17;;;5.63;;
15669;SDS011;18524;45.190;5.732;2023-10-31T20:23:10;16.63;;;10.73;;
15669;SDS011;18524;45.190;5.732;2023-10-31T20:28:01;10.27;;;6.10;;
15669;SDS011;18524;45.190;5.732;2023-10-31T20:32:51;9.33;;;5.60;;
15669;SDS011;18524;45.190;5.732;2023-10-31T20:37:42;5.90;;;4.90;;
15669;SDS011;18524;45.190;5.732;2023-10-31T20:42:32;13.13;;;8.10;;
15669;SDS011;18524;45.190;5.732;2023-10-31T20:47:23;6.70;;;5.40;;
15669;SDS011;18524;45.190;5.732;2023-10-31T20:52:13;8.97;;;6.43;;
15669;SDS011;18524;45.190;5.732;2023-10-31T20:57:04;12.27;;;9.30;;
15669;SDS011;18524;45.190;5.732;2023-10-31T21:01:54;9.13;;;6.97;;
15669;SDS011;18524;45.190;5.732;2023-10-31T21:06:45;8.53;;;6.57;;
15669;SDS011;18524;45.190;5.732;2023-10-31T21:11:35;8.60;;;7.33;;
15669;SDS011;18524;45.190;5.732;2023-10-31T21:16:26;22.33;;;17.13;;
15669;SDS011;18524;45.190;5.732;2023-10-31T21:21:16;17.33;;;14.50;;
15669;SDS011;18524;45.190;5.732;2023-10-31T21:26:07;13.80;;;11.23;;
15669;SDS011;18524;45.190;5.732;2023-10-31T21:30:57;11.63;;;10.10;;
15669;SDS011;18524;45.190;5.732;2023-10-31T21:35:48;11.33;;;9.53;;
15669;SDS011;18524;45.190;5.732;2023-10-31T21:40:38;8.13;;;7.30;;
15669;SDS011;18524;45.190;5.732;2023-10-31T21:45:28;11.43;;;8.50;;
15669;SDS011;18524;45.190;5.732;2023-10-31T21:50:19;8.17;;;7.37;;
15669;SDS011;18524;45.190;5.732;2023-10-31T21:55:09;8.57;;;7.57;;
15669;SDS011;18524;45.190;5.732;2023-10-31T22:00:00;8.70;;;7.03;;
15669;SDS011;18524;45.190;5.732;2023-10-31T22:04:51;9.13;;;7.37;;
15669;SDS011;18524;45.190;5.732;2023-10-31T22:09:41;8.77;;;7.10;;
15669;SDS011;18524;45.190;5.732;2023-10-31T22:14:31;8.40;;;7.00;;
15669;SDS011;18524;45.190;5.732;2023-10-31T22:19:22;8.30;;;7.47;;
15669;SDS011;18524;45.190;5.732;2023-10-31T22:24:12;8.60;;;7.77;;
15669;SDS011;18524;45.190;5.732;2023-10-31T22:29:03;8.20;;;7.37;;
15669;SDS011;18524;45.190;5.732;2023-10-31T22:33:53;8.27;;;7.20;;
15669;SDS011;18524;45.190;5.732;2023-10-31T22:38:44;9.27;;;7.77;;
15669;SDS011;18524;45.190;5.732;2023-10-31T22:43:34;12.07;;;7.50;;
15669;SDS011;18524;45.190;5.732;2023-10-31T22:48:25;7.63;;;6.57;;
15669;SDS011;18524;45.190;5.732;2023-10-31T22:53:16;8.40;;;6.83;;
15669;SDS011;18524;45.190;5.732;2023-10-31T22:58:06;8.00;;;7.20;;
15669;SDS011;18524;45.190;5.732;2023-10-31T23:02:58;8.70;;;7.27;;
15669;SDS011;18524;45.190;5.732;2023-10-31T23:07:48;10.43;;;8.43;;
15669;SDS011;18524;45.190;5.732;2023-10-31T23:12:42;11.23;;;8.43;;
15669;SDS011;18524;45.190;5.732;2023-10-31T23:17:32;9.70;;;7.73;;
15669;SDS011;18524;45.190;5.732;2023-10-31T23:22:23;8.53;;;7.63;;
15669;SDS011;18524;45.190;5.732;2023-10-31T23:27:13;8.57;;;7.77;;
15669;SDS011;18524;45.190;5.732;2023-10-31T23:32:05;8.97;;;8.00;;
15669;SDS011;18524;45.190;5.732;2023-10-31T23:36:55;5.10;;;4.60;;
15669;SDS011;18524;45.190;5.732;2023-10-31T23:41:46;3.27;;;2.97;;
15669;SDS011;18524;45.190;5.732;2023-10-31T23:46:37;4.53;;;2.87;;
15669;SDS011;18524;45.190;5.732;2023-10-31T23:51:27;4.03;;;3.10;;
15669;SDS011;18524;45.190;5.732;2023-10-31T23:56:17;5.83;;;3.87;;
